sensor_id;sensor_type;location;lat;lon;timestamp;temperature;humidity
3758;DHT22;1894;51.038;13.692;2023-06-24T00:00:13;17.10;99.90
3758;DHT22;1894;51.038;13.692;2023-06-24T00:02:44;17.10;99.90
3758;DHT22;1894;51.038;13.692;2023-06-24T00:05:12;16.90;99.90
3758;DHT22;1894;51.038;13.692;2023-06-24T00:07:39;16.90;99.90
3758;DHT22;1894;51.038;13.692;2023-06-24T00:10:13;16.90;99.90
3758;DHT22;1894;51.038;13.692;2023-06-24T00:12:43;16.90;99.90
3758;DHT22;1894;51.038;13.692;2023-06-24T00:15:10;16.90;99.90
3758;DHT22;1894;51.038;13.692;2023-06-24T00:17:37;16.90;99.90
3758;DHT22;1894;51.038;13.692;2023-06-24T00:20:05;16.80;99.90
3758;DHT22;1894;51.038;13.692;2023-06-24T00:22:35;16.90;99.90
3758;DHT22;1894;51.038;13.692;2023-06-24T00:25:03;17.00;99.90
3758;DHT22;1894;51.038;13.692;2023-06-24T00:27:32;17.00;99.90
3758;DHT22;1894;51.038;13.692;2023-06-24T00:29:59;16.90;99.90
3758;DHT22;1894;51.038;13.692;2023-06-24T00:32:26;17.10;99.90
3758;DHT22;1894;51.038;13.692;2023-06-24T00:34:53;17.10;99.90
3758;DHT22;1894;51.038;13.692;2023-06-24T00:37:23;17.10;99.90
3758;DHT22;1894;51.038;13.692;2023-06-24T00:39:50;17.10;99.90
3758;DHT22;1894;51.038;13.692;2023-06-24T00:42:17;17.00;99.90
3758;DHT22;1894;51.038;13.692;2023-06-24T00:44:44;16.90;99.90
3758;DHT22;1894;51.038;13.692;2023-06-24T00:47:11;17.00;99.90
3758;DHT22;1894;51.038;13.692;2023-06-24T00:49:38;17.00;99.90
3758;DHT22;1894;51.038;13.692;2023-06-24T00:52:06;17.00;99.90
3758;DHT22;1894;51.038;13.692;2023-06-24T00:54:33;17.00;99.90
3758;DHT22;1894;51.038;13.692;2023-06-24T00:57:01;17.00;99.90
3758;DHT22;1894;51.038;13.692;2023-06-24T00:59:28;17.10;99.90
3758;DHT22;1894;51.038;13.692;2023-06-24T01:01:59;17.00;99.90
3758;DHT22;1894;51.038;13.692;2023-06-24T01:04:33;17.00;99.90
3758;DHT22;1894;51.038;13.692;2023-06-24T01:07:01;17.00;99.90
3758;DHT22;1894;51.038;13.692;2023-06-24T01:09:29;17.10;99.90
3758;DHT22;1894;51.038;13.692;2023-06-24T01:11:56;17.10;99.90
3758;DHT22;1894;51.038;13.692;2023-06-24T01:14:23;17.10;99.90
3758;DHT22;1894;51.038;13.692;2023-06-24T01:25:24;17.00;99.90
3758;DHT22;1894;51.038;13.692;2023-06-24T01:33:30;17.20;99.90
3758;DHT22;1894;51.038;13.692;2023-06-24T01:36:01;17.10;99.90
3758;DHT22;1894;51.038;13.692;2023-06-24T01:38:44;17.20;99.90
3758;DHT22;1894;51.038;13.692;2023-06-24T01:41:16;17.20;99.90
3758;DHT22;1894;51.038;13.692;2023-06-24T01:43:45;17.30;99.90
3758;DHT22;1894;51.038;13.692;2023-06-24T01:46:14;17.30;99.90
3758;DHT22;1894;51.038;13.692;2023-06-24T01:48:44;17.30;99.90
3758;DHT22;1894;51.038;13.692;2023-06-24T01:51:18;17.30;99.90
3758;DHT22;1894;51.038;13.692;2023-06-24T01:53:52;17.30;99.90
3758;DHT22;1894;51.038;13.692;2023-06-24T01:56:22;17.20;99.90
3758;DHT22;1894;51.038;13.692;2023-06-24T01:58:51;17.30;99.90
3758;DHT22;1894;51.038;13.692;2023-06-24T02:01:19;17.20;99.90
3758;DHT22;1894;51.038;13.692;2023-06-24T02:03:48;17.20;99.90
3758;DHT22;1894;51.038;13.692;2023-06-24T02:06:17;17.20;99.90
3758;DHT22;1894;51.038;13.692;2023-06-24T02:08:48;17.20;99.90
3758;DHT22;1894;51.038;13.692;2023-06-24T02:11:16;17.30;99.90
3758;DHT22;1894;51.038;13.692;2023-06-24T02:13:44;17.30;99.90
3758;DHT22;1894;51.038;13.692;2023-06-24T02:16:16;17.30;99.90
3758;DHT22;1894;51.038;13.692;2023-06-24T02:18:44;17.30;99.90
3758;DHT22;1894;51.038;13.692;2023-06-24T02:21:12;17.30;99.90
3758;DHT22;1894;51.038;13.692;2023-06-24T02:23:39;17.20;99.90
3758;DHT22;1894;51.038;13.692;2023-06-24T02:26:08;17.10;99.90
3758;DHT22;1894;51.038;13.692;2023-06-24T02:28:37;17.10;99.90
3758;DHT22;1894;51.038;13.692;2023-06-24T02:31:06;17.20;99.90
3758;DHT22;1894;51.038;13.692;2023-06-24T02:33:35;17.30;99.90
3758;DHT22;1894;51.038;13.692;2023-06-24T02:36:02;17.20;99.90
3758;DHT22;1894;51.038;13.692;2023-06-24T02:38:29;17.10;99.90
3758;DHT22;1894;51.038;13.692;2023-06-24T02:40:57;17.10;99.90
3758;DHT22;1894;51.038;13.692;2023-06-24T02:43:25;17.10;99.90
3758;DHT22;1894;51.038;13.692;2023-06-24T02:45:53;17.10;99.90
3758;DHT22;1894;51.038;13.692;2023-06-24T02:48:20;17.00;99.90
3758;DHT22;1894;51.038;13.692;2023-06-24T02:50:48;17.00;99.90
3758;DHT22;1894;51.038;13.692;2023-06-24T02:53:16;17.00;99.90
3758;DHT22;1894;51.038;13.692;2023-06-24T02:55:45;17.00;99.90
3758;DHT22;1894;51.038;13.692;2023-06-24T02:58:13;17.00;99.90
3758;DHT22;1894;51.038;13.692;2023-06-24T03:01:07;17.00;99.90
3758;DHT22;1894;51.038;13.692;2023-06-24T03:03:46;17.00;99.90
3758;DHT22;1894;51.038;13.692;2023-06-24T03:06:17;17.00;99.90
3758;DHT22;1894;51.038;13.692;2023-06-24T03:08:50;17.10;99.90
3758;DHT22;1894;51.038;13.692;2023-06-24T03:11:20;17.00;99.90
3758;DHT22;1894;51.038;13.692;2023-06-24T03:13:49;17.00;99.90
3758;DHT22;1894;51.038;13.692;2023-06-24T03:16:29;16.90;99.90
3758;DHT22;1894;51.038;13.692;2023-06-24T03:19:19;16.90;99.90
3758;DHT22;1894;51.038;13.692;2023-06-24T03:21:48;16.90;99.90
3758;DHT22;1894;51.038;13.692;2023-06-24T03:24:16;16.80;99.90
3758;DHT22;1894;51.038;13.692;2023-06-24T03:26:47;16.80;99.90
3758;DHT22;1894;51.038;13.692;2023-06-24T03:29:16;16.70;99.90
3758;DHT22;1894;51.038;13.692;2023-06-24T03:31:53;16.70;99.90
3758;DHT22;1894;51.038;13.692;2023-06-24T03:34:23;16.80;99.90
3758;DHT22;1894;51.038;13.692;2023-06-24T03:36:53;16.70;99.90
3758;DHT22;1894;51.038;13.692;2023-06-24T03:39:21;16.70;99.90
3758;DHT22;1894;51.038;13.692;2023-06-24T03:41:49;16.70;99.90
3758;DHT22;1894;51.038;13.692;2023-06-24T03:44:16;16.70;99.90
3758;DHT22;1894;51.038;13.692;2023-06-24T03:46:43;16.70;99.90
3758;DHT22;1894;51.038;13.692;2023-06-24T03:49:11;16.70;99.90
3758;DHT22;1894;51.038;13.692;2023-06-24T03:51:38;16.70;99.90
3758;DHT22;1894;51.038;13.692;2023-06-24T03:54:06;16.60;99.90
3758;DHT22;1894;51.038;13.692;2023-06-24T03:56:33;16.60;99.90
3758;DHT22;1894;51.038;13.692;2023-06-24T03:59:00;16.60;99.90
3758;DHT22;1894;51.038;13.692;2023-06-24T04:01:30;16.50;99.90
3758;DHT22;1894;51.038;13.692;2023-06-24T04:03:59;16.60;99.90
3758;DHT22;1894;51.038;13.692;2023-06-24T04:06:26;16.70;99.90
3758;DHT22;1894;51.038;13.692;2023-06-24T04:08:53;16.80;99.90
3758;DHT22;1894;51.038;13.692;2023-06-24T04:11:21;16.90;99.90
3758;DHT22;1894;51.038;13.692;2023-06-24T04:13:49;17.00;99.90
3758;DHT22;1894;51.038;13.692;2023-06-24T04:16:16;16.90;99.90
3758;DHT22;1894;51.038;13.692;2023-06-24T04:18:43;16.90;99.90
3758;DHT22;1894;51.038;13.692;2023-06-24T04:21:10;17.00;99.90
3758;DHT22;1894;51.038;13.692;2023-06-24T04:23:38;17.10;99.90
3758;DHT22;1894;51.038;13.692;2023-06-24T04:26:05;17.20;99.90
3758;DHT22;1894;51.038;13.692;2023-06-24T04:28:32;17.30;99.90
3758;DHT22;1894;51.038;13.692;2023-06-24T04:31:00;17.30;99.90
3758;DHT22;1894;51.038;13.692;2023-06-24T04:33:27;17.20;99.90
3758;DHT22;1894;51.038;13.692;2023-06-24T04:35:55;17.30;99.90
3758;DHT22;1894;51.038;13.692;2023-06-24T04:38:24;17.30;99.90
3758;DHT22;1894;51.038;13.692;2023-06-24T04:40:51;17.30;99.90
3758;DHT22;1894;51.038;13.692;2023-06-24T04:43:18;17.50;99.90
3758;DHT22;1894;51.038;13.692;2023-06-24T04:45:45;17.40;99.90
3758;DHT22;1894;51.038;13.692;2023-06-24T04:48:12;17.10;99.90
3758;DHT22;1894;51.038;13.692;2023-06-24T04:50:39;17.10;99.90
3758;DHT22;1894;51.038;13.692;2023-06-24T04:53:08;17.30;99.90
3758;DHT22;1894;51.038;13.692;2023-06-24T04:55:35;17.40;99.90
3758;DHT22;1894;51.038;13.692;2023-06-24T04:58:02;17.40;99.90
3758;DHT22;1894;51.038;13.692;2023-06-24T05:00:29;17.40;99.90
3758;DHT22;1894;51.038;13.692;2023-06-24T05:02:57;17.40;99.90
3758;DHT22;1894;51.038;13.692;2023-06-24T05:05:24;17.30;99.90
3758;DHT22;1894;51.038;13.692;2023-06-24T05:07:52;17.50;99.90
3758;DHT22;1894;51.038;13.692;2023-06-24T05:10:19;17.30;99.90
3758;DHT22;1894;51.038;13.692;2023-06-24T05:12:46;17.40;99.90
3758;DHT22;1894;51.038;13.692;2023-06-24T05:15:13;17.60;99.90
3758;DHT22;1894;51.038;13.692;2023-06-24T05:17:41;17.70;99.90
3758;DHT22;1894;51.038;13.692;2023-06-24T05:20:08;17.80;99.90
3758;DHT22;1894;51.038;13.692;2023-06-24T05:22:35;17.70;99.90
3758;DHT22;1894;51.038;13.692;2023-06-24T05:25:03;18.00;99.90
3758;DHT22;1894;51.038;13.692;2023-06-24T05:27:30;17.90;99.90
3758;DHT22;1894;51.038;13.692;2023-06-24T05:29:57;18.10;99.90
3758;DHT22;1894;51.038;13.692;2023-06-24T05:32:24;18.00;99.90
3758;DHT22;1894;51.038;13.692;2023-06-24T05:34:51;17.80;99.90
3758;DHT22;1894;51.038;13.692;2023-06-24T05:37:18;17.70;99.90
3758;DHT22;1894;51.038;13.692;2023-06-24T05:39:45;17.80;99.90
3758;DHT22;1894;51.038;13.692;2023-06-24T05:42:12;17.80;99.90
3758;DHT22;1894;51.038;13.692;2023-06-24T05:44:39;17.90;99.90
3758;DHT22;1894;51.038;13.692;2023-06-24T05:47:06;17.80;99.90
3758;DHT22;1894;51.038;13.692;2023-06-24T05:49:33;17.80;99.90
3758;DHT22;1894;51.038;13.692;2023-06-24T05:52:00;17.60;99.90
3758;DHT22;1894;51.038;13.692;2023-06-24T05:54:27;17.60;99.90
3758;DHT22;1894;51.038;13.692;2023-06-24T05:56:54;17.80;99.90
3758;DHT22;1894;51.038;13.692;2023-06-24T05:59:21;17.80;99.90
3758;DHT22;1894;51.038;13.692;2023-06-24T06:01:48;17.80;99.90
3758;DHT22;1894;51.038;13.692;2023-06-24T06:04:15;17.80;99.90
3758;DHT22;1894;51.038;13.692;2023-06-24T06:06:43;17.90;99.90
3758;DHT22;1894;51.038;13.692;2023-06-24T06:09:10;17.90;99.90
3758;DHT22;1894;51.038;13.692;2023-06-24T06:11:37;17.50;99.90
3758;DHT22;1894;51.038;13.692;2023-06-24T06:14:04;17.40;99.90
3758;DHT22;1894;51.038;13.692;2023-06-24T06:16:31;17.50;99.90
3758;DHT22;1894;51.038;13.692;2023-06-24T06:18:58;17.50;99.90
3758;DHT22;1894;51.038;13.692;2023-06-24T06:21:25;17.40;99.90
3758;DHT22;1894;51.038;13.692;2023-06-24T06:23:52;17.20;99.90
3758;DHT22;1894;51.038;13.692;2023-06-24T06:26:21;17.00;99.90
3758;DHT22;1894;51.038;13.692;2023-06-24T06:28:48;17.10;99.90
3758;DHT22;1894;51.038;13.692;2023-06-24T06:31:16;17.30;99.90
3758;DHT22;1894;51.038;13.692;2023-06-24T06:33:46;17.20;99.90
3758;DHT22;1894;51.038;13.692;2023-06-24T06:36:14;17.30;99.90
3758;DHT22;1894;51.038;13.692;2023-06-24T06:38:41;17.50;99.90
3758;DHT22;1894;51.038;13.692;2023-06-24T06:41:08;17.60;99.90
3758;DHT22;1894;51.038;13.692;2023-06-24T06:43:35;17.60;99.90
3758;DHT22;1894;51.038;13.692;2023-06-24T06:46:02;17.60;99.90
3758;DHT22;1894;51.038;13.692;2023-06-24T06:48:29;17.50;99.90
3758;DHT22;1894;51.038;13.692;2023-06-24T06:50:56;17.50;99.90
3758;DHT22;1894;51.038;13.692;2023-06-24T06:53:23;17.30;99.90
3758;DHT22;1894;51.038;13.692;2023-06-24T06:55:51;17.00;99.90
3758;DHT22;1894;51.038;13.692;2023-06-24T06:58:18;17.20;99.90
3758;DHT22;1894;51.038;13.692;2023-06-24T07:00:45;17.40;99.90
3758;DHT22;1894;51.038;13.692;2023-06-24T07:03:12;17.60;99.90
3758;DHT22;1894;51.038;13.692;2023-06-24T07:05:39;17.60;99.90
3758;DHT22;1894;51.038;13.692;2023-06-24T07:08:06;17.80;99.90
3758;DHT22;1894;51.038;13.692;2023-06-24T07:10:34;17.80;99.90
3758;DHT22;1894;51.038;13.692;2023-06-24T07:13:01;18.10;99.90
3758;DHT22;1894;51.038;13.692;2023-06-24T07:15:28;18.10;99.90
3758;DHT22;1894;51.038;13.692;2023-06-24T07:17:55;18.20;99.90
3758;DHT22;1894;51.038;13.692;2023-06-24T07:20:22;18.50;99.90
3758;DHT22;1894;51.038;13.692;2023-06-24T07:22:49;18.70;99.90
3758;DHT22;1894;51.038;13.692;2023-06-24T07:25:16;19.10;99.90
3758;DHT22;1894;51.038;13.692;2023-06-24T07:27:43;19.50;99.90
3758;DHT22;1894;51.038;13.692;2023-06-24T07:30:11;19.90;99.90
3758;DHT22;1894;51.038;13.692;2023-06-24T07:32:38;19.90;99.90
3758;DHT22;1894;51.038;13.692;2023-06-24T07:35:05;19.90;99.90
3758;DHT22;1894;51.038;13.692;2023-06-24T07:37:34;20.10;99.90
3758;DHT22;1894;51.038;13.692;2023-06-24T07:40:01;20.10;99.90
3758;DHT22;1894;51.038;13.692;2023-06-24T07:42:30;20.40;99.90
3758;DHT22;1894;51.038;13.692;2023-06-24T07:44:57;20.30;99.90
3758;DHT22;1894;51.038;13.692;2023-06-24T07:47:24;20.30;99.90
3758;DHT22;1894;51.038;13.692;2023-06-24T07:49:51;20.20;99.90
3758;DHT22;1894;51.038;13.692;2023-06-24T07:52:18;19.80;99.90
3758;DHT22;1894;51.038;13.692;2023-06-24T07:54:45;19.50;99.90
3758;DHT22;1894;51.038;13.692;2023-06-24T07:57:12;19.60;99.90
3758;DHT22;1894;51.038;13.692;2023-06-24T07:59:39;20.10;99.90
3758;DHT22;1894;51.038;13.692;2023-06-24T08:02:06;20.30;99.90
3758;DHT22;1894;51.038;13.692;2023-06-24T08:04:33;20.60;99.90
3758;DHT22;1894;51.038;13.692;2023-06-24T08:07:02;20.70;99.90
3758;DHT22;1894;51.038;13.692;2023-06-24T08:09:30;20.30;99.90
3758;DHT22;1894;51.038;13.692;2023-06-24T08:11:57;20.40;99.90
3758;DHT22;1894;51.038;13.692;2023-06-24T08:14:24;20.10;99.90
3758;DHT22;1894;51.038;13.692;2023-06-24T08:16:51;19.70;99.90
3758;DHT22;1894;51.038;13.692;2023-06-24T08:19:18;19.40;99.90
3758;DHT22;1894;51.038;13.692;2023-06-24T08:21:45;19.40;99.90
3758;DHT22;1894;51.038;13.692;2023-06-24T08:24:12;19.90;99.90
3758;DHT22;1894;51.038;13.692;2023-06-24T08:26:39;20.00;99.90
3758;DHT22;1894;51.038;13.692;2023-06-24T08:29:06;20.00;99.90
3758;DHT22;1894;51.038;13.692;2023-06-24T08:31:34;19.90;99.90
3758;DHT22;1894;51.038;13.692;2023-06-24T08:34:01;19.80;99.90
3758;DHT22;1894;51.038;13.692;2023-06-24T08:36:33;20.20;99.90
3758;DHT22;1894;51.038;13.692;2023-06-24T08:39:00;20.70;99.90
3758;DHT22;1894;51.038;13.692;2023-06-24T08:41:27;20.90;99.90
3758;DHT22;1894;51.038;13.692;2023-06-24T08:43:54;21.00;99.90
3758;DHT22;1894;51.038;13.692;2023-06-24T08:46:24;20.60;99.90
3758;DHT22;1894;51.038;13.692;2023-06-24T08:49:02;20.80;99.90
3758;DHT22;1894;51.038;13.692;2023-06-24T08:51:39;21.20;99.90
3758;DHT22;1894;51.038;13.692;2023-06-24T08:54:09;21.40;99.90
3758;DHT22;1894;51.038;13.692;2023-06-24T08:56:37;21.50;99.90
3758;DHT22;1894;51.038;13.692;2023-06-24T08:59:08;20.60;99.90
3758;DHT22;1894;51.038;13.692;2023-06-24T09:01:35;20.30;99.90
3758;DHT22;1894;51.038;13.692;2023-06-24T09:04:02;20.60;99.90
3758;DHT22;1894;51.038;13.692;2023-06-24T09:06:31;20.80;99.90
3758;DHT22;1894;51.038;13.692;2023-06-24T09:08:58;20.90;99.90
3758;DHT22;1894;51.038;13.692;2023-06-24T09:11:26;20.90;99.90
3758;DHT22;1894;51.038;13.692;2023-06-24T09:14:00;20.60;99.90
3758;DHT22;1894;51.038;13.692;2023-06-24T09:16:29;20.70;99.90
3758;DHT22;1894;51.038;13.692;2023-06-24T09:18:56;21.00;99.90
3758;DHT22;1894;51.038;13.692;2023-06-24T09:21:27;20.50;99.90
3758;DHT22;1894;51.038;13.692;2023-06-24T09:23:58;20.40;99.90
3758;DHT22;1894;51.038;13.692;2023-06-24T09:26:26;20.70;99.90
3758;DHT22;1894;51.038;13.692;2023-06-24T09:28:53;20.70;99.90
3758;DHT22;1894;51.038;13.692;2023-06-24T09:31:24;21.00;99.90
3758;DHT22;1894;51.038;13.692;2023-06-24T09:33:51;21.10;99.90
3758;DHT22;1894;51.038;13.692;2023-06-24T09:36:18;21.20;99.90
3758;DHT22;1894;51.038;13.692;2023-06-24T09:38:45;21.60;99.90
3758;DHT22;1894;51.038;13.692;2023-06-24T09:41:13;21.40;99.90
3758;DHT22;1894;51.038;13.692;2023-06-24T09:43:43;21.20;99.90
3758;DHT22;1894;51.038;13.692;2023-06-24T09:46:14;21.30;99.90
3758;DHT22;1894;51.038;13.692;2023-06-24T09:48:42;21.20;99.90
3758;DHT22;1894;51.038;13.692;2023-06-24T09:51:12;22.00;99.90
3758;DHT22;1894;51.038;13.692;2023-06-24T09:53:40;21.50;99.90
3758;DHT22;1894;51.038;13.692;2023-06-24T09:56:10;21.70;99.90
3758;DHT22;1894;51.038;13.692;2023-06-24T09:58:40;21.30;99.90
3758;DHT22;1894;51.038;13.692;2023-06-24T10:01:08;21.70;99.90
3758;DHT22;1894;51.038;13.692;2023-06-24T10:03:36;22.20;99.90
3758;DHT22;1894;51.038;13.692;2023-06-24T10:06:05;22.10;99.90
3758;DHT22;1894;51.038;13.692;2023-06-24T10:08:32;21.80;99.90
3758;DHT22;1894;51.038;13.692;2023-06-24T10:11:00;21.90;99.90
3758;DHT22;1894;51.038;13.692;2023-06-24T10:13:29;22.30;99.90
3758;DHT22;1894;51.038;13.692;2023-06-24T10:15:56;22.50;99.90
3758;DHT22;1894;51.038;13.692;2023-06-24T10:18:37;22.40;99.90
3758;DHT22;1894;51.038;13.692;2023-06-24T10:21:08;22.00;99.90
3758;DHT22;1894;51.038;13.692;2023-06-24T10:26:32;22.00;99.90
3758;DHT22;1894;51.038;13.692;2023-06-24T10:34:31;23.20;99.90
3758;DHT22;1894;51.038;13.692;2023-06-24T10:37:02;22.80;99.90
3758;DHT22;1894;51.038;13.692;2023-06-24T10:47:41;22.30;99.90
3758;DHT22;1894;51.038;13.692;2023-06-24T10:50:11;21.90;99.90
3758;DHT22;1894;51.038;13.692;2023-06-24T10:52:46;22.20;99.90
3758;DHT22;1894;51.038;13.692;2023-06-24T10:55:17;22.30;99.90
3758;DHT22;1894;51.038;13.692;2023-06-24T10:57:45;22.30;99.90
3758;DHT22;1894;51.038;13.692;2023-06-24T11:00:13;22.20;99.90
3758;DHT22;1894;51.038;13.692;2023-06-24T11:02:41;22.80;99.90
3758;DHT22;1894;51.038;13.692;2023-06-24T11:05:08;23.00;99.90
3758;DHT22;1894;51.038;13.692;2023-06-24T11:07:37;22.80;99.90
3758;DHT22;1894;51.038;13.692;2023-06-24T11:10:10;22.90;99.90
3758;DHT22;1894;51.038;13.692;2023-06-24T11:12:41;23.20;99.90
3758;DHT22;1894;51.038;13.692;2023-06-24T11:15:12;23.60;99.90
3758;DHT22;1894;51.038;13.692;2023-06-24T11:17:40;24.20;99.90
3758;DHT22;1894;51.038;13.692;2023-06-24T11:20:09;24.30;99.90
3758;DHT22;1894;51.038;13.692;2023-06-24T11:22:37;24.80;99.90
3758;DHT22;1894;51.038;13.692;2023-06-24T11:25:06;24.30;99.90
3758;DHT22;1894;51.038;13.692;2023-06-24T11:27:33;23.70;99.90
3758;DHT22;1894;51.038;13.692;2023-06-24T11:30:00;23.90;99.90
3758;DHT22;1894;51.038;13.692;2023-06-24T11:32:38;24.50;99.90
3758;DHT22;1894;51.038;13.692;2023-06-24T11:35:07;24.70;99.90
3758;DHT22;1894;51.038;13.692;2023-06-24T11:37:35;24.10;99.90
3758;DHT22;1894;51.038;13.692;2023-06-24T11:40:06;23.70;99.90
3758;DHT22;1894;51.038;13.692;2023-06-24T11:42:39;23.00;99.90
3758;DHT22;1894;51.038;13.692;2023-06-24T11:45:11;23.30;99.90
3758;DHT22;1894;51.038;13.692;2023-06-24T11:47:42;23.60;99.90
3758;DHT22;1894;51.038;13.692;2023-06-24T11:50:10;24.30;99.90
3758;DHT22;1894;51.038;13.692;2023-06-24T11:52:46;24.40;99.90
3758;DHT22;1894;51.038;13.692;2023-06-24T11:55:18;24.30;99.90
3758;DHT22;1894;51.038;13.692;2023-06-24T12:00:28;25.90;99.90
3758;DHT22;1894;51.038;13.692;2023-06-24T12:02:57;25.60;99.90
3758;DHT22;1894;51.038;13.692;2023-06-24T12:05:35;25.70;99.90
3758;DHT22;1894;51.038;13.692;2023-06-24T12:08:05;27.50;99.90
3758;DHT22;1894;51.038;13.692;2023-06-24T12:10:34;29.00;99.90
3758;DHT22;1894;51.038;13.692;2023-06-24T12:13:03;29.90;99.70
3758;DHT22;1894;51.038;13.692;2023-06-24T12:15:32;29.50;99.00
3758;DHT22;1894;51.038;13.692;2023-06-24T12:18:00;30.40;98.40
3758;DHT22;1894;51.038;13.692;2023-06-24T12:20:29;31.30;96.60
3758;DHT22;1894;51.038;13.692;2023-06-24T12:23:02;30.20;96.70
3758;DHT22;1894;51.038;13.692;2023-06-24T12:25:32;31.50;95.50
3758;DHT22;1894;51.038;13.692;2023-06-24T12:28:00;31.90;95.10
3758;DHT22;1894;51.038;13.692;2023-06-24T12:30:27;30.80;95.20
3758;DHT22;1894;51.038;13.692;2023-06-24T12:32:55;32.30;94.40
3758;DHT22;1894;51.038;13.692;2023-06-24T12:35:23;34.30;91.20
3758;DHT22;1894;51.038;13.692;2023-06-24T12:37:53;35.10;86.80
3758;DHT22;1894;51.038;13.692;2023-06-24T12:40:20;34.30;86.90
3758;DHT22;1894;51.038;13.692;2023-06-24T12:42:47;35.20;84.40
3758;DHT22;1894;51.038;13.692;2023-06-24T12:45:15;34.90;77.70
3758;DHT22;1894;51.038;13.692;2023-06-24T12:47:42;34.70;78.50
3758;DHT22;1894;51.038;13.692;2023-06-24T12:50:09;35.40;80.90
3758;DHT22;1894;51.038;13.692;2023-06-24T12:52:36;35.50;76.10
3758;DHT22;1894;51.038;13.692;2023-06-24T12:55:05;36.30;72.00
3758;DHT22;1894;51.038;13.692;2023-06-24T12:57:34;35.40;71.90
3758;DHT22;1894;51.038;13.692;2023-06-24T13:00:02;36.60;71.70
3758;DHT22;1894;51.038;13.692;2023-06-24T13:02:32;36.90;69.60
3758;DHT22;1894;51.038;13.692;2023-06-24T13:05:00;33.40;74.80
3758;DHT22;1894;51.038;13.692;2023-06-24T13:07:27;33.40;72.80
3758;DHT22;1894;51.038;13.692;2023-06-24T13:09:54;34.20;73.50
3758;DHT22;1894;51.038;13.692;2023-06-24T13:12:21;31.20;76.50
3758;DHT22;1894;51.038;13.692;2023-06-24T13:14:49;32.50;76.80
3758;DHT22;1894;51.038;13.692;2023-06-24T13:17:16;33.20;74.80
3758;DHT22;1894;51.038;13.692;2023-06-24T13:19:43;33.50;74.70
3758;DHT22;1894;51.038;13.692;2023-06-24T13:22:10;33.50;75.80
3758;DHT22;1894;51.038;13.692;2023-06-24T13:24:37;33.80;72.90
3758;DHT22;1894;51.038;13.692;2023-06-24T13:27:04;33.40;75.50
3758;DHT22;1894;51.038;13.692;2023-06-24T13:29:31;35.80;72.40
3758;DHT22;1894;51.038;13.692;2023-06-24T13:31:58;35.50;68.20
3758;DHT22;1894;51.038;13.692;2023-06-24T13:34:25;36.40;65.50
3758;DHT22;1894;51.038;13.692;2023-06-24T13:36:53;35.40;68.20
3758;DHT22;1894;51.038;13.692;2023-06-24T13:39:20;36.80;64.30
3758;DHT22;1894;51.038;13.692;2023-06-24T13:41:50;34.90;64.70
3758;DHT22;1894;51.038;13.692;2023-06-24T13:44:19;35.80;63.50
3758;DHT22;1894;51.038;13.692;2023-06-24T13:46:46;33.40;64.50
3758;DHT22;1894;51.038;13.692;2023-06-24T13:49:13;34.00;67.10
3758;DHT22;1894;51.038;13.692;2023-06-24T13:51:40;34.60;64.00
3758;DHT22;1894;51.038;13.692;2023-06-24T13:54:08;35.20;64.00
3758;DHT22;1894;51.038;13.692;2023-06-24T13:56:35;35.20;64.20
3758;DHT22;1894;51.038;13.692;2023-06-24T13:59:02;35.90;61.90
3758;DHT22;1894;51.038;13.692;2023-06-24T14:01:29;36.60;61.90
3758;DHT22;1894;51.038;13.692;2023-06-24T14:03:57;34.70;61.80
3758;DHT22;1894;51.038;13.692;2023-06-24T14:06:24;35.70;61.70
3758;DHT22;1894;51.038;13.692;2023-06-24T14:08:53;35.70;60.50
3758;DHT22;1894;51.038;13.692;2023-06-24T14:11:20;35.90;64.20
3758;DHT22;1894;51.038;13.692;2023-06-24T14:13:48;38.10;60.30
3758;DHT22;1894;51.038;13.692;2023-06-24T14:16:15;38.20;58.80
3758;DHT22;1894;51.038;13.692;2023-06-24T14:18:43;38.80;56.30
3758;DHT22;1894;51.038;13.692;2023-06-24T14:21:11;37.10;56.80
3758;DHT22;1894;51.038;13.692;2023-06-24T14:23:38;38.20;56.00
3758;DHT22;1894;51.038;13.692;2023-06-24T14:26:07;37.70;55.00
3758;DHT22;1894;51.038;13.692;2023-06-24T14:28:34;36.50;56.90
3758;DHT22;1894;51.038;13.692;2023-06-24T14:31:01;35.00;58.70
3758;DHT22;1894;51.038;13.692;2023-06-24T14:33:28;36.10;58.90
3758;DHT22;1894;51.038;13.692;2023-06-24T14:35:56;35.70;58.80
3758;DHT22;1894;51.038;13.692;2023-06-24T14:38:23;34.80;57.90
3758;DHT22;1894;51.038;13.692;2023-06-24T14:40:52;36.40;59.00
3758;DHT22;1894;51.038;13.692;2023-06-24T14:43:20;37.80;55.10
3758;DHT22;1894;51.038;13.692;2023-06-24T14:45:47;35.70;57.50
3758;DHT22;1894;51.038;13.692;2023-06-24T14:48:14;36.80;56.80
3758;DHT22;1894;51.038;13.692;2023-06-24T14:50:41;37.70;55.70
3758;DHT22;1894;51.038;13.692;2023-06-24T14:53:08;37.30;56.10
3758;DHT22;1894;51.038;13.692;2023-06-24T14:55:35;37.10;56.50
3758;DHT22;1894;51.038;13.692;2023-06-24T14:58:03;37.90;54.90
3758;DHT22;1894;51.038;13.692;2023-06-24T15:00:30;37.40;55.20
3758;DHT22;1894;51.038;13.692;2023-06-24T15:02:57;36.70;56.20
3758;DHT22;1894;51.038;13.692;2023-06-24T15:05:25;37.20;56.00
3758;DHT22;1894;51.038;13.692;2023-06-24T15:07:52;35.50;56.20
3758;DHT22;1894;51.038;13.692;2023-06-24T15:10:19;35.50;57.20
3758;DHT22;1894;51.038;13.692;2023-06-24T15:12:46;37.40;55.20
3758;DHT22;1894;51.038;13.692;2023-06-24T15:15:13;37.00;53.80
3758;DHT22;1894;51.038;13.692;2023-06-24T15:17:41;38.60;52.20
3758;DHT22;1894;51.038;13.692;2023-06-24T15:20:12;38.50;51.70
3758;DHT22;1894;51.038;13.692;2023-06-24T15:22:39;39.20;50.80
3758;DHT22;1894;51.038;13.692;2023-06-24T15:25:07;38.90;50.70
3758;DHT22;1894;51.038;13.692;2023-06-24T15:27:34;39.70;50.70
3758;DHT22;1894;51.038;13.692;2023-06-24T15:30:01;40.60;49.60
3758;DHT22;1894;51.038;13.692;2023-06-24T15:32:28;39.50;50.10
3758;DHT22;1894;51.038;13.692;2023-06-24T15:34:56;39.40;50.50
3758;DHT22;1894;51.038;13.692;2023-06-24T15:37:23;40.50;49.40
3758;DHT22;1894;51.038;13.692;2023-06-24T15:39:50;41.10;48.20
3758;DHT22;1894;51.038;13.692;2023-06-24T15:42:17;41.50;48.00
3758;DHT22;1894;51.038;13.692;2023-06-24T15:44:44;41.40;47.90
3758;DHT22;1894;51.038;13.692;2023-06-24T15:47:11;41.20;45.90
3758;DHT22;1894;51.038;13.692;2023-06-24T15:49:38;38.50;48.80
3758;DHT22;1894;51.038;13.692;2023-06-24T15:52:05;38.20;50.40
3758;DHT22;1894;51.038;13.692;2023-06-24T15:54:32;37.70;50.30
3758;DHT22;1894;51.038;13.692;2023-06-24T15:56:59;36.40;51.50
3758;DHT22;1894;51.038;13.692;2023-06-24T15:59:26;36.20;53.20
3758;DHT22;1894;51.038;13.692;2023-06-24T16:01:53;37.20;53.80
3758;DHT22;1894;51.038;13.692;2023-06-24T16:04:20;38.70;49.10
3758;DHT22;1894;51.038;13.692;2023-06-24T16:06:47;39.60;47.50
3758;DHT22;1894;51.038;13.692;2023-06-24T16:09:14;40.40;47.30
3758;DHT22;1894;51.038;13.692;2023-06-24T16:11:41;39.60;45.40
3758;DHT22;1894;51.038;13.692;2023-06-24T16:14:09;39.30;44.90
3758;DHT22;1894;51.038;13.692;2023-06-24T16:16:36;39.40;44.40
3758;DHT22;1894;51.038;13.692;2023-06-24T16:19:03;39.60;44.30
3758;DHT22;1894;51.038;13.692;2023-06-24T16:21:30;38.70;44.60
3758;DHT22;1894;51.038;13.692;2023-06-24T16:23:59;38.70;44.10